Time;durP1;ratioP1;P1;durP2;ratioP2;P2;SDS_P1;SDS_P2;PMS_P1;PMS_P2;Temp;Humidity;BMP_temperature;BMP_pressure;BME280_temperature;BME280_humidity;BME280_pressure;Samples;Min_cycle;Max_cycle;Signal;HPM_P1;HPM_P2
2021/09/11 00:01:20;;;;;;;10.27;9.40;;;19.90;89.10;;;;;;5079142;28;20288;-91
2021/09/11 00:03:46;;;;;;;10.90;10.00;;;19.90;88.20;;;;;;5078489;28;20194;-90
2021/09/11 00:06:11;;;;;;;10.43;9.52;;;19.90;88.60;;;;;;5065731;28;20221;-90
2021/09/11 00:08:37;;;;;;;10.00;9.15;;;20.00;88.50;;;;;;5071461;28;20215;-91
2021/09/11 00:11:03;;;;;;;10.02;9.30;;;20.00;88.40;;;;;;5071085;28;20188;-90
2021/09/11 00:13:29;;;;;;;10.15;9.25;;;20.00;88.80;;;;;;5072172;28;20196;-91
2021/09/11 00:15:55;;;;;;;9.95;9.05;;;19.80;88.90;;;;;;5071457;28;20224;-91
2021/09/11 00:18:20;;;;;;;10.60;9.60;;;19.80;88.90;;;;;;5068628;28;20196;-90
2021/09/11 00:20:46;;;;;;;9.80;8.88;;;19.70;89.70;;;;;;5054230;28;20231;-91
2021/09/11 00:23:12;;;;;;;9.52;8.48;;;19.50;90.30;;;;;;5081929;28;20568;-91
2021/09/11 00:25:38;;;;;;;9.80;9.00;;;19.40;90.60;;;;;;5061103;28;20195;-91
2021/09/11 00:28:05;;;;;;;9.98;9.15;;;19.50;90.00;;;;;;5070683;28;20667;-91
2021/09/11 00:30:31;;;;;;;9.23;8.43;;;19.50;90.50;;;;;;5067080;28;20301;-91
2021/09/11 00:32:56;;;;;;;10.13;9.35;;;19.40;89.60;;;;;;5072767;28;20192;-90
2021/09/11 00:35:22;;;;;;;8.60;7.72;;;19.40;90.90;;;;;;5054398;28;20265;-90
2021/09/11 00:37:48;;;;;;;8.30;7.60;;;19.30;90.90;;;;;;5072091;28;20226;-91
2021/09/11 00:40:16;;;;;;;8.63;7.93;;;19.20;90.80;;;;;;5042582;28;20246;-90
2021/09/11 00:42:48;;;;;;;7.28;6.57;;;19.20;90.90;;;;;;5077755;28;20191;-90
2021/09/11 00:45:20;;;;;;;7.18;6.57;;;19.30;90.20;;;;;;5079913;28;20184;-90
2021/09/11 00:47:46;;;;;;;7.22;6.63;;;19.10;91.00;;;;;;5048940;28;20240;-90
2021/09/11 00:50:13;;;;;;;7.82;7.15;;;18.90;91.60;;;;;;5080629;28;20221;-90
2021/09/11 00:52:41;;;;;;;7.05;6.45;;;18.90;92.50;;;;;;5082773;28;20186;-89
2021/09/11 00:55:09;;;;;;;7.78;7.00;;;18.90;93.20;;;;;;5062521;28;20211;-91
2021/09/11 00:57:37;;;;;;;7.18;6.68;;;18.80;93.80;;;;;;5048897;28;20761;-91
2021/09/11 01:00:04;;;;;;;7.22;6.72;;;18.80;94.00;;;;;;5058485;28;20203;-91
2021/09/11 01:02:30;;;;;;;7.80;7.20;;;18.80;93.40;;;;;;5077882;28;20213;-91
2021/09/11 01:04:56;;;;;;;7.65;6.95;;;18.90;93.90;;;;;;5063512;28;20790;-90
2021/09/11 01:07:24;;;;;;;7.22;6.72;;;18.80;93.40;;;;;;5079940;28;20209;-90
2021/09/11 01:09:49;;;;;;;7.63;6.93;;;18.90;93.70;;;;;;5079649;28;20191;-90
2021/09/11 01:12:16;;;;;;;7.93;7.32;;;19.00;93.40;;;;;;5062256;28;20222;-90
2021/09/11 01:14:41;;;;;;;7.90;7.25;;;18.80;93.70;;;;;;5045069;28;20263;-90
2021/09/11 01:17:14;;;;;;;7.70;7.10;;;18.90;94.10;;;;;;5081035;28;20227;-89
2021/09/11 01:19:40;;;;;;;7.35;6.78;;;19.00;93.40;;;;;;5062638;28;20191;-90
2021/09/11 01:22:10;;;;;;;8.68;7.97;;;19.00;93.70;;;;;;5046552;28;20311;-90
2021/09/11 01:24:36;;;;;;;7.47;6.88;;;18.90;93.90;;;;;;5078178;28;20250;-91
2021/09/11 01:27:02;;;;;;;9.20;8.05;;;19.00;93.80;;;;;;5060596;28;20733;-90
2021/09/11 01:29:28;;;;;;;7.50;6.90;;;18.90;94.20;;;;;;5063976;28;20237;-90
2021/09/11 01:31:54;;;;;;;7.55;6.95;;;18.90;94.40;;;;;;5052179;28;20275;-90
2021/09/11 01:34:20;;;;;;;7.72;7.15;;;18.90;94.40;;;;;;5077907;28;20224;-90
2021/09/11 01:36:45;;;;;;;7.97;7.10;;;18.80;94.90;;;;;;5037613;28;20228;-89
2021/09/11 01:39:12;;;;;;;6.90;6.40;;;18.90;94.60;;;;;;5065897;28;20666;-90
2021/09/11 01:41:37;;;;;;;7.35;6.78;;;19.00;93.90;;;;;;5035137;28;20230;-89
2021/09/11 01:44:03;;;;;;;8.25;7.43;;;19.00;93.70;;;;;;5061300;28;20208;-90
2021/09/11 01:46:29;;;;;;;8.02;7.43;;;19.00;93.90;;;;;;5061251;28;20291;-89
2021/09/11 01:48:55;;;;;;;8.32;7.63;;;19.00;94.20;;;;;;5065753;28;20180;-89
2021/09/11 01:51:21;;;;;;;8.55;7.75;;;19.00;94.10;;;;;;5056597;28;20213;-90
2021/09/11 01:53:46;;;;;;;8.48;7.65;;;18.90;94.80;;;;;;5061422;28;20203;-90
2021/09/11 01:56:12;;;;;;;8.77;8.10;;;19.00;94.70;;;;;;5067089;28;20208;-90
2021/09/11 01:58:38;;;;;;;9.40;8.48;;;19.00;94.40;;;;;;5065363;28;20219;-90
2021/09/11 02:01:04;;;;;;;8.75;8.00;;;19.00;94.30;;;;;;5056244;28;20273;-90
2021/09/11 02:03:30;;;;;;;9.10;8.25;;;19.00;95.30;;;;;;5074887;28;20347;-90
2021/09/11 02:05:55;;;;;;;7.95;7.25;;;19.00;94.70;;;;;;5050086;28;20211;-90
2021/09/11 02:08:21;;;;;;;8.55;7.75;;;19.00;94.50;;;;;;5057969;28;20255;-90
2021/09/11 02:10:47;;;;;;;7.65;6.95;;;19.00;94.50;;;;;;5079653;28;20667;-91
2021/09/11 02:13:13;;;;;;;8.57;7.78;;;19.10;94.00;;;;;;5066861;28;20223;-90
2021/09/11 02:15:39;;;;;;;9.00;7.93;;;19.20;93.60;;;;;;5065644;28;20199;-90
2021/09/11 02:18:05;;;;;;;8.23;7.53;;;19.20;93.50;;;;;;5070442;28;20184;-91
2021/09/11 02:20:30;;;;;;;8.02;7.35;;;19.20;93.70;;;;;;5041980;28;20264;-89
2021/09/11 02:22:56;;;;;;;7.95;7.25;;;19.10;93.80;;;;;;5049927;28;20202;-91
2021/09/11 02:25:22;;;;;;;9.05;7.30;;;19.20;92.90;;;;;;5049679;28;20211;-89
2021/09/11 02:27:48;;;;;;;7.97;7.28;;;19.30;92.50;;;;;;5051251;28;20653;-90
2021/09/11 02:30:13;;;;;;;8.27;7.68;;;19.40;92.50;;;;;;5050545;28;20276;-89
2021/09/11 02:32:39;;;;;;;8.25;7.50;;;19.40;92.40;;;;;;5065306;28;20292;-90
2021/09/11 02:35:07;;;;;;;8.15;7.50;;;19.40;91.80;;;;;;5062371;28;20195;-90
2021/09/11 02:37:33;;;;;;;8.63;7.93;;;19.40;92.00;;;;;;5036800;28;20224;-91
2021/09/11 02:39:58;;;;;;;8.13;7.40;;;19.30;92.70;;;;;;5065864;28;20218;-90
2021/09/11 02:42:24;;;;;;;8.27;7.47;;;19.20;92.70;;;;;;5066304;28;20198;-89
2021/09/11 02:44:50;;;;;;;9.30;8.40;;;19.20;93.10;;;;;;5029335;28;20580;-90
2021/09/11 02:47:16;;;;;;;8.80;8.02;;;19.30;92.60;;;;;;5069484;28;20212;-90
2021/09/11 02:49:42;;;;;;;8.32;7.70;;;19.30;92.60;;;;;;5063104;28;20247;-90
2021/09/11 02:52:08;;;;;;;8.70;7.97;;;19.20;93.10;;;;;;5069026;28;20217;-89
2021/09/11 02:54:34;;;;;;;8.82;8.05;;;19.00;94.10;;;;;;5052980;28;20214;-90
2021/09/11 02:56:59;;;;;;;10.45;9.63;;;19.20;93.10;;;;;;5067507;28;20746;-90
2021/09/11 02:59:25;;;;;;;8.70;8.07;;;19.00;94.50;;;;;;5041942;28;20560;-90
2021/09/11 03:01:51;;;;;;;9.10;8.40;;;19.00;94.60;;;;;;5058445;28;20211;-90
2021/09/11 03:04:17;;;;;;;8.60;8.00;;;19.00;95.00;;;;;;5056186;28;20203;-91
2021/09/11 03:06:42;;;;;;;8.95;8.18;;;18.90;94.60;;;;;;5040172;28;20208;-90
2021/09/11 03:09:08;;;;;;;8.60;7.95;;;19.10;94.20;;;;;;5077722;28;20580;-89
2021/09/11 03:11:34;;;;;;;9.23;8.45;;;19.10;93.70;;;;;;5040922;28;20229;-90
2021/09/11 03:14:00;;;;;;;9.00;8.30;;;19.20;93.30;;;;;;5055968;28;20195;-90
2021/09/11 03:16:25;;;;;;;8.18;7.57;;;19.10;93.70;;;;;;5078214;28;20207;-90
2021/09/11 03:18:51;;;;;;;8.52;7.80;;;19.00;93.80;;;;;;5055202;28;20208;-90
2021/09/11 03:21:17;;;;;;;8.77;7.97;;;19.20;93.00;;;;;;5066569;28;20248;-90
2021/09/11 03:23:43;;;;;;;8.18;7.57;;;19.30;92.60;;;;;;5079404;28;20190;-90
2021/09/11 03:26:08;;;;;;;8.27;7.65;;;19.40;92.30;;;;;;5053968;28;20219;-90
2021/09/11 03:28:34;;;;;;;7.95;7.32;;;19.50;92.00;;;;;;5065177;28;20205;-90
2021/09/11 03:31:00;;;;;;;8.57;7.90;;;19.40;92.00;;;;;;5059422;28;20285;-90
2021/09/11 03:33:26;;;;;;;8.77;7.97;;;19.50;91.90;;;;;;5059841;28;20188;-90
2021/09/11 03:35:51;;;;;;;9.55;8.57;;;19.40;92.30;;;;;;5058488;28;20216;-90
2021/09/11 03:38:17;;;;;;;8.95;8.15;;;19.30;92.80;;;;;;5040290;28;20208;-90
2021/09/11 03:40:43;;;;;;;9.20;8.30;;;19.30;93.10;;;;;;5040003;28;20291;-90
2021/09/11 03:43:09;;;;;;;9.93;9.02;;;19.20;93.30;;;;;;5041849;28;20193;-90
2021/09/11 03:45:34;;;;;;;9.82;9.02;;;18.90;94.30;;;;;;5056429;28;20733;-90
2021/09/11 03:48:00;;;;;;;9.18;8.48;;;19.00;94.50;;;;;;5044306;28;20181;-89
2021/09/11 03:50:26;;;;;;;9.88;9.07;;;18.90;95.00;;;;;;5079904;28;20218;-90
2021/09/11 03:52:52;;;;;;;9.02;8.38;;;18.90;95.00;;;;;;5074263;28;20191;-90
2021/09/11 03:55:17;;;;;;;9.15;8.35;;;19.00;94.00;;;;;;5059426;28;20196;-90
2021/09/11 03:57:43;;;;;;;9.63;8.75;;;19.20;93.40;;;;;;5061523;28;20211;-90
2021/09/11 04:00:10;;;;;;;9.02;8.32;;;19.30;92.70;;;;;;5057742;28;20199;-91
2021/09/11 04:02:36;;;;;;;9.40;8.63;;;19.20;93.00;;;;;;5056867;28;20189;-89
2021/09/11 04:05:01;;;;;;;8.50;7.80;;;19.20;92.50;;;;;;5027950;28;20191;-89
2021/09/11 04:07:27;;;;;;;8.80;7.90;;;19.20;92.80;;;;;;5066535;28;20214;-88
2021/09/11 04:09:53;;;;;;;11.93;8.80;;;19.30;92.30;;;;;;5053217;28;20202;-91
2021/09/11 04:12:19;;;;;;;8.98;8.18;;;19.40;91.90;;;;;;5061179;28;20245;-89
2021/09/11 04:14:44;;;;;;;8.40;7.70;;;19.30;92.20;;;;;;5074926;28;20210;-89
2021/09/11 04:17:10;;;;;;;8.77;8.07;;;19.40;92.00;;;;;;5035915;28;20620;-89
2021/09/11 04:19:36;;;;;;;8.57;7.97;;;19.40;91.80;;;;;;5063948;28;20200;-89
2021/09/11 04:22:02;;;;;;;8.82;8.07;;;19.50;91.20;;;;;;5050322;28;20216;-90
2021/09/11 04:24:28;;;;;;;8.55;7.85;;;19.60;91.00;;;;;;5044437;28;20205;-89
2021/09/11 04:26:54;;;;;;;8.75;8.13;;;19.50;90.70;;;;;;5047642;28;20212;-89
2021/09/11 04:29:20;;;;;;;8.40;7.70;;;19.60;90.60;;;;;;5084019;28;20217;-90
2021/09/11 04:31:46;;;;;;;8.70;8.07;;;19.60;90.30;;;;;;5076993;28;20187;-89
2021/09/11 04:34:11;;;;;;;8.45;7.75;;;19.70;90.20;;;;;;5092131;28;20190;-88
2021/09/11 04:36:37;;;;;;;8.05;7.45;;;19.70;90.20;;;;;;5096384;28;20240;-89
2021/09/11 04:39:03;;;;;;;8.48;7.68;;;19.70;90.40;;;;;;5083864;28;20192;-91
2021/09/11 04:41:28;;;;;;;8.80;8.07;;;19.60;90.70;;;;;;5058400;28;20652;-90
2021/09/11 04:43:54;;;;;;;8.43;7.72;;;19.70;89.80;;;;;;5072187;28;20189;-88
2021/09/11 04:46:20;;;;;;;8.30;7.70;;;19.80;89.60;;;;;;5057688;28;20263;-90
2021/09/11 04:48:46;;;;;;;8.05;7.40;;;19.80;89.50;;;;;;5057980;28;20196;-89
2021/09/11 04:51:11;;;;;;;8.65;7.90;;;19.80;89.60;;;;;;5081649;28;20200;-90
2021/09/11 04:53:37;;;;;;;9.13;8.40;;;19.80;89.40;;;;;;5079898;28;20236;-89
2021/09/11 04:56:03;;;;;;;9.93;8.93;;;19.80;90.10;;;;;;5076237;28;20218;-90
2021/09/11 04:58:32;;;;;;;9.48;8.60;;;19.60;90.60;;;;;;5090583;28;20203;-91
2021/09/11 05:00:58;;;;;;;9.05;8.32;;;19.50;91.30;;;;;;5071437;28;20223;-90
2021/09/11 05:03:23;;;;;;;8.07;7.38;;;19.60;91.20;;;;;;5080583;28;20191;-91
2021/09/11 05:05:52;;;;;;;7.95;7.35;;;19.60;91.00;;;;;;5062206;28;20208;-90
2021/09/11 05:08:18;;;;;;;8.90;8.10;;;19.70;90.60;;;;;;5073903;28;20242;-89
2021/09/11 05:10:45;;;;;;;8.98;8.27;;;19.50;91.70;;;;;;5080258;28;20695;-90
2021/09/11 05:13:11;;;;;;;7.93;7.28;;;19.40;92.20;;;;;;5077822;28;20205;-90
2021/09/11 05:15:37;;;;;;;8.73;8.05;;;19.20;93.00;;;;;;5086247;28;20273;-89
2021/09/11 05:18:02;;;;;;;9.43;8.68;;;19.00;93.70;;;;;;5080477;28;20291;-88
2021/09/11 05:20:28;;;;;;;9.95;9.05;;;18.80;95.20;;;;;;5089392;28;20242;-88
2021/09/11 05:22:54;;;;;;;8.63;7.88;;;18.80;95.40;;;;;;5053776;28;20302;-90
2021/09/11 05:25:20;;;;;;;9.77;8.82;;;18.80;95.60;;;;;;5065265;28;20195;-90
2021/09/11 05:27:46;;;;;;;9.68;8.50;;;18.70;96.50;;;;;;5043598;28;20265;-90
2021/09/11 05:30:12;;;;;;;9.68;8.88;;;18.60;96.90;;;;;;5034864;28;20208;-88
2021/09/11 05:32:37;;;;;;;8.57;7.78;;;18.50;97.10;;;;;;5073149;28;20193;-89
2021/09/11 05:35:06;;;;;;;8.40;7.63;;;18.60;97.10;;;;;;5066397;28;20286;-88
2021/09/11 05:37:33;;;;;;;8.45;7.78;;;18.70;96.20;;;;;;5054290;28;20735;-88
2021/09/11 05:39:58;;;;;;;7.75;7.15;;;18.80;95.90;;;;;;5053879;28;20199;-88
2021/09/11 05:42:24;;;;;;;9.55;7.35;;;18.80;95.10;;;;;;5066390;28;20208;-89
2021/09/11 05:44:50;;;;;;;7.55;6.95;;;18.90;94.80;;;;;;5053575;28;20192;-88
2021/09/11 05:47:15;;;;;;;8.38;7.68;;;18.80;94.70;;;;;;5057390;28;20219;-89
2021/09/11 05:49:41;;;;;;;8.93;8.05;;;18.80;95.00;;;;;;5078009;28;20195;-88
2021/09/11 05:52:07;;;;;;;8.75;8.10;;;18.70;95.50;;;;;;5062488;28;20191;-87
2021/09/11 05:54:33;;;;;;;8.65;8.05;;;18.70;95.90;;;;;;5061445;28;20589;-88
2021/09/11 05:56:58;;;;;;;8.30;7.28;;;18.70;96.30;;;;;;5073228;28;20210;-87
2021/09/11 05:59:24;;;;;;;8.27;7.68;;;18.80;95.60;;;;;;5076431;28;20191;-88
2021/09/11 06:01:50;;;;;;;8.90;8.02;;;19.00;94.90;;;;;;5070588;28;20208;-88
2021/09/11 06:04:15;;;;;;;8.45;7.72;;;19.10;94.20;;;;;;5074306;28;20203;-88
2021/09/11 06:06:41;;;;;;;8.23;7.53;;;19.00;94.10;;;;;;5074699;28;20211;-88
2021/09/11 06:09:07;;;;;;;8.30;7.43;;;19.00;94.20;;;;;;5074681;28;20229;-87
2021/09/11 06:11:33;;;;;;;8.52;7.72;;;19.00;94.20;;;;;;5059015;28;20205;-88
2021/09/11 06:13:58;;;;;;;8.27;7.68;;;19.00;94.40;;;;;;5061240;28;20207;-88
2021/09/11 06:16:24;;;;;;;8.60;7.95;;;19.00;95.00;;;;;;5065983;28;20212;-87
2021/09/11 06:18:50;;;;;;;8.18;7.57;;;19.00;94.80;;;;;;5056897;28;20524;-87
2021/09/11 06:21:16;;;;;;;8.02;7.32;;;19.00;94.60;;;;;;5044228;28;20222;-90
2021/09/11 06:23:41;;;;;;;8.38;7.68;;;19.20;93.20;;;;;;5074187;28;20649;-89
2021/09/11 06:26:08;;;;;;;13.55;7.97;;;19.30;92.80;;;;;;5047794;28;20212;-89
2021/09/11 06:28:33;;;;;;;8.85;7.93;;;19.40;93.00;;;;;;5060460;28;20210;-89
2021/09/11 06:30:59;;;;;;;8.15;7.45;;;19.30;92.80;;;;;;5075069;28;20714;-90
2021/09/11 06:33:25;;;;;;;8.07;7.38;;;19.20;93.80;;;;;;5053294;28;20191;-89
2021/09/11 06:35:51;;;;;;;7.88;7.18;;;19.00;94.50;;;;;;5069592;28;20218;-89
2021/09/11 06:38:16;;;;;;;8.48;7.40;;;19.10;94.50;;;;;;5048694;28;20203;-88
2021/09/11 06:40:42;;;;;;;8.40;7.70;;;19.20;93.70;;;;;;5045800;28;20219;-90
2021/09/11 06:43:08;;;;;;;7.93;7.32;;;19.20;93.20;;;;;;5077372;28;20205;-88
2021/09/11 06:45:34;;;;;;;8.00;7.30;;;19.20;93.20;;;;;;5067071;28;20231;-89
2021/09/11 06:48:00;;;;;;;7.97;7.20;;;19.20;93.80;;;;;;5073131;28;20247;-89
2021/09/11 06:50:25;;;;;;;8.50;7.70;;;19.40;92.90;;;;;;5065784;28;20191;-89
2021/09/11 06:52:52;;;;;;;8.50;7.78;;;19.30;93.50;;;;;;5053320;28;20691;-89
2021/09/11 06:55:18;;;;;;;10.35;8.85;;;19.10;93.70;;;;;;5072741;28;20824;-90
2021/09/11 06:57:44;;;;;;;7.93;7.28;;;19.10;94.00;;;;;;5064066;28;20235;-89
2021/09/11 07:00:10;;;;;;;8.90;7.90;;;19.30;93.30;;;;;;5076538;28;20198;-89
2021/09/11 07:02:36;;;;;;;9.40;7.75;;;19.30;93.60;;;;;;5044793;28;20249;-89
2021/09/11 07:05:02;;;;;;;9.25;8.27;;;19.40;93.40;;;;;;5074918;28;20188;-89
2021/09/11 07:07:29;;;;;;;7.32;6.82;;;19.50;92.10;;;;;;5079146;28;20206;-89
2021/09/11 07:09:55;;;;;;;9.15;7.88;;;19.60;92.10;;;;;;5056852;28;20204;-89
2021/09/11 07:12:22;;;;;;;8.35;7.65;;;19.60;92.00;;;;;;5076264;28;20699;-88
2021/09/11 07:14:49;;;;;;;8.52;7.82;;;19.50;92.70;;;;;;5063523;28;20259;-89
2021/09/11 07:17:14;;;;;;;9.07;8.27;;;19.50;92.90;;;;;;5080078;28;20257;-90
2021/09/11 07:19:40;;;;;;;8.82;8.13;;;19.50;92.80;;;;;;5054406;28;20186;-90
2021/09/11 07:22:06;;;;;;;9.07;8.35;;;19.60;92.90;;;;;;5068450;28;20210;-89
2021/09/11 07:24:32;;;;;;;7.97;7.28;;;19.40;93.60;;;;;;5081920;28;20213;-90
2021/09/11 07:26:58;;;;;;;9.18;8.38;;;19.60;92.60;;;;;;5079773;28;20242;-90
2021/09/11 07:29:24;;;;;;;8.77;7.97;;;19.60;92.00;;;;;;5070654;28;20208;-90
2021/09/11 07:31:50;;;;;;;8.25;7.57;;;19.70;92.10;;;;;;5054174;28;20304;-90
2021/09/11 07:34:16;;;;;;;8.18;7.53;;;19.80;92.00;;;;;;5055091;28;21026;-91
2021/09/11 07:36:42;;;;;;;9.55;8.65;;;19.90;91.50;;;;;;5072882;28;20216;-91
2021/09/11 07:39:07;;;;;;;9.30;8.40;;;19.90;91.50;;;;;;5072423;28;20198;-90
2021/09/11 07:41:34;;;;;;;9.77;8.88;;;19.90;91.10;;;;;;5073925;28;20226;-90
2021/09/11 07:44:00;;;;;;;9.38;8.38;;;19.80;91.60;;;;;;5075521;28;20207;-90
2021/09/11 07:46:29;;;;;;;9.40;8.52;;;19.80;92.10;;;;;;5070606;28;20303;-91
2021/09/11 07:48:54;;;;;;;10.05;9.25;;;19.90;92.20;;;;;;5074772;28;20244;-88
2021/09/11 07:51:20;;;;;;;9.82;9.02;;;20.00;92.30;;;;;;5055379;28;20215;-90
2021/09/11 07:53:46;;;;;;;9.35;8.55;;;20.00;91.40;;;;;;5077586;28;20183;-90
2021/09/11 07:56:12;;;;;;;10.75;9.65;;;19.90;91.10;;;;;;5083520;28;20234;-91
2021/09/11 07:58:38;;;;;;;11.13;9.90;;;19.80;91.50;;;;;;5065602;28;20191;-90
2021/09/11 08:01:03;;;;;;;10.38;9.30;;;19.60;92.80;;;;;;5080882;28;20219;-89
2021/09/11 08:03:29;;;;;;;10.63;9.70;;;19.60;93.30;;;;;;5085976;28;20225;-89
2021/09/11 08:05:55;;;;;;;10.43;9.40;;;19.60;93.70;;;;;;5083787;28;20203;-90
2021/09/11 08:08:22;;;;;;;10.65;9.68;;;19.80;92.70;;;;;;5081639;28;20194;-90
2021/09/11 08:10:49;;;;;;;10.45;9.65;;;20.00;90.60;;;;;;5052544;28;20192;-90
2021/09/11 08:13:15;;;;;;;11.07;10.07;;;20.10;90.90;;;;;;5081238;28;20184;-90
2021/09/11 08:15:45;;;;;;;9.88;9.13;;;20.00;91.10;;;;;;5080894;28;20187;-90
2021/09/11 08:18:11;;;;;;;10.30;9.40;;;20.00;91.50;;;;;;5080361;28;20634;-90
2021/09/11 08:20:38;;;;;;;10.73;9.82;;;20.10;91.20;;;;;;5084207;28;20241;-89
2021/09/11 08:23:05;;;;;;;11.48;10.38;;;20.10;89.90;;;;;;5060839;28;20192;-89
2021/09/11 08:25:31;;;;;;;10.73;9.75;;;20.10;91.20;;;;;;5050900;28;20192;-89
2021/09/11 08:27:58;;;;;;;11.13;10.13;;;20.00;91.10;;;;;;5066625;28;20202;-90
2021/09/11 08:30:24;;;;;;;10.68;9.88;;;20.20;91.10;;;;;;5081687;28;20210;-90
2021/09/11 08:32:50;;;;;;;10.82;9.93;;;20.10;90.50;;;;;;5079989;28;20183;-89
2021/09/11 08:35:16;;;;;;;9.98;9.07;;;20.10;90.70;;;;;;5065050;28;20192;-91
2021/09/11 08:37:43;;;;;;;9.43;8.73;;;20.30;90.70;;;;;;5067669;28;20274;-90
2021/09/11 08:40:10;;;;;;;10.52;9.65;;;20.30;91.20;;;;;;5071170;28;20191;-91
2021/09/11 08:42:36;;;;;;;10.13;9.18;;;20.50;89.80;;;;;;5074670;28;20248;-88
2021/09/11 08:45:03;;;;;;;9.70;8.90;;;20.60;90.00;;;;;;5081613;28;20223;-89
2021/09/11 08:47:29;;;;;;;10.48;9.60;;;20.60;89.10;;;;;;5077443;28;20208;-88
2021/09/11 08:49:55;;;;;;;9.88;9.02;;;20.50;88.90;;;;;;5076752;28;20189;-90
2021/09/11 08:52:21;;;;;;;11.40;9.02;;;20.50;88.40;;;;;;5053048;28;20623;-89
2021/09/11 08:54:46;;;;;;;9.77;9.02;;;20.50;88.70;;;;;;5080555;28;20664;-88
2021/09/11 08:57:24;;;;;;;10.00;9.13;;;20.40;88.60;;;;;;5076982;28;20209;-88
2021/09/11 08:59:51;;;;;;;10.45;9.45;;;20.60;87.90;;;;;;5074718;28;20198;-90
2021/09/11 09:02:19;;;;;;;9.88;9.07;;;20.70;88.40;;;;;;5082603;28;20237;-89
2021/09/11 09:04:48;;;;;;;10.52;9.57;;;20.70;88.60;;;;;;5080747;28;20680;-89
2021/09/11 09:07:40;;;;;;;10.40;8.57;;;20.60;88.60;;;;;;5053709;28;20245;-89
2021/09/11 09:10:08;;;;;;;9.48;8.70;;;21.10;86.40;;;;;;5071806;28;20210;-87
2021/09/11 09:12:45;;;;;;;7.93;7.22;;;21.40;85.30;;;;;;5064783;28;20246;-90
2021/09/11 09:15:24;;;;;;;8.65;7.95;;;21.60;83.90;;;;;;5071694;28;20189;-90
2021/09/11 09:17:53;;;;;;;8.95;8.25;;;21.70;84.50;;;;;;5059943;28;20209;-90
2021/09/11 09:20:28;;;;;;;10.02;8.40;;;21.70;85.20;;;;;;5071476;28;20196;-87
2021/09/11 09:23:00;;;;;;;9.63;8.73;;;21.70;85.60;;;;;;5057343;28;20215;-87
2021/09/11 09:25:35;;;;;;;9.00;8.20;;;21.70;84.90;;;;;;5075944;28;20192;-89
2021/09/11 09:28:09;;;;;;;9.32;8.50;;;21.60;85.90;;;;;;5075069;28;20213;-91
2021/09/11 09:30:45;;;;;;;8.57;7.85;;;21.60;84.90;;;;;;5075108;28;20201;-90
2021/09/11 09:33:30;;;;;;;9.73;8.85;;;21.40;85.80;;;;;;5073824;28;20200;-90
2021/09/11 09:36:00;;;;;;;10.02;8.38;;;21.30;86.70;;;;;;5063119;28;20222;-89
2021/09/11 09:38:26;;;;;;;8.57;7.88;;;21.20;86.80;;;;;;5076231;28;20199;-89
2021/09/11 09:40:53;;;;;;;8.85;8.05;;;21.20;86.30;;;;;;5070936;28;20207;-89
2021/09/11 09:43:34;;;;;;;9.25;7.50;;;21.40;84.90;;;;;;5077153;28;20197;-90
2021/09/11 09:46:15;;;;;;;7.53;6.93;;;21.50;85.00;;;;;;5082653;28;20267;-88
2021/09/11 09:48:43;;;;;;;7.30;6.68;;;21.50;85.00;;;;;;5076971;28;20190;-90
2021/09/11 09:51:11;;;;;;;7.32;6.78;;;21.80;81.90;;;;;;5079248;28;20280;-90
2021/09/11 09:53:39;;;;;;;7.72;7.13;;;21.70;82.00;;;;;;5084772;28;20232;-90
2021/09/11 09:56:05;;;;;;;6.97;6.25;;;21.60;83.90;;;;;;5083790;28;20201;-91
2021/09/11 09:58:32;;;;;;;7.38;6.68;;;21.70;82.70;;;;;;5081368;28;20272;-88
2021/09/11 10:00:58;;;;;;;7.47;6.80;;;21.70;84.10;;;;;;5079797;28;20264;-88
2021/09/11 10:03:24;;;;;;;6.95;6.28;;;21.80;83.50;;;;;;5079229;28;20198;-88
2021/09/11 10:05:54;;;;;;;6.65;6.10;;;21.90;81.50;;;;;;5076065;28;20270;-87
2021/09/11 10:08:20;;;;;;;6.75;6.25;;;22.30;79.70;;;;;;5081285;28;20181;-89
2021/09/11 10:10:48;;;;;;;7.13;6.50;;;22.60;79.70;;;;;;5071728;28;20211;-88
2021/09/11 10:13:19;;;;;;;6.63;6.13;;;22.90;77.20;;;;;;5050438;28;20196;-87
2021/09/11 10:16:00;;;;;;;6.07;5.57;;;23.40;75.80;;;;;;5081276;28;20218;-87
2021/09/11 10:18:34;;;;;;;7.45;6.75;;;23.40;75.10;;;;;;5074266;28;20187;-87
2021/09/11 10:21:14;;;;;;;6.93;6.32;;;23.70;76.20;;;;;;5069716;28;20233;-88
2021/09/11 10:24:03;;;;;;;6.25;5.75;;;23.70;74.50;;;;;;5069947;28;20191;-89
2021/09/11 10:26:51;;;;;;;6.45;5.85;;;23.70;76.10;;;;;;5072626;28;20759;-88
2021/09/11 10:29:32;;;;;;;6.63;6.03;;;23.50;74.20;;;;;;5073210;28;20192;-88
2021/09/11 10:32:02;;;;;;;6.53;5.93;;;23.30;75.90;;;;;;5048261;28;20215;-88
2021/09/11 10:34:46;;;;;;;6.50;6.00;;;23.20;75.70;;;;;;5075648;28;20195;-88
2021/09/11 10:37:13;;;;;;;7.30;6.70;;;23.50;74.80;;;;;;5074091;28;20213;-88
2021/09/11 10:39:39;;;;;;;6.82;6.25;;;23.80;73.70;;;;;;5078981;28;20250;-88
2021/09/11 10:42:07;;;;;;;7.45;6.85;;;23.90;73.50;;;;;;5078309;28;20234;-88
2021/09/11 10:44:33;;;;;;;6.88;6.28;;;24.20;73.30;;;;;;5079430;28;20195;-88
2021/09/11 10:46:59;;;;;;;7.13;6.50;;;24.50;70.30;;;;;;5060586;28;20247;-88
2021/09/11 10:49:39;;;;;;;7.20;6.57;;;24.70;69.80;;;;;;5062668;28;20184;-88
2021/09/11 10:52:05;;;;;;;6.60;6.05;;;24.30;70.90;;;;;;5077921;28;20198;-88
2021/09/11 10:54:42;;;;;;;7.07;6.38;;;24.10;72.20;;;;;;5077629;28;20192;-88
2021/09/11 10:57:16;;;;;;;7.65;6.93;;;24.30;71.20;;;;;;5063097;28;20272;-88
2021/09/11 10:59:48;;;;;;;6.82;6.10;;;24.60;70.10;;;;;;5079897;28;20190;-89
2021/09/11 11:02:30;;;;;;;8.10;6.30;;;24.60;68.90;;;;;;5070616;28;20650;-88
2021/09/11 11:05:07;;;;;;;6.25;5.75;;;24.50;69.90;;;;;;5066266;28;20218;-88
2021/09/11 11:07:34;;;;;;;6.40;5.80;;;24.30;71.30;;;;;;5081729;28;20203;-88
2021/09/11 11:10:00;;;;;;;8.02;6.22;;;24.40;71.70;;;;;;5063217;28;20192;-88
2021/09/11 11:12:28;;;;;;;6.45;5.95;;;24.40;69.60;;;;;;5077963;28;20218;-88
2021/09/11 11:15:18;;;;;;;6.80;5.97;;;24.30;70.70;;;;;;5077269;28;20192;-88
2021/09/11 11:17:48;;;;;;;6.05;5.65;;;24.10;71.10;;;;;;5063430;28;20215;-88
2021/09/11 11:20:20;;;;;;;6.85;6.35;;;23.90;71.30;;;;;;5065983;28;20200;-88
2021/09/11 11:22:46;;;;;;;6.55;6.05;;;23.80;72.60;;;;;;5057820;28;20215;-88
2021/09/11 11:25:15;;;;;;;6.28;5.78;;;24.20;72.20;;;;;;5077123;28;20196;-87
2021/09/11 11:27:41;;;;;;;5.95;5.45;;;24.60;71.50;;;;;;5060751;28;20793;-89
2021/09/11 11:30:10;;;;;;;9.18;5.55;;;24.80;73.60;;;;;;5080927;28;20195;-88
2021/09/11 11:32:36;;;;;;;6.25;5.47;;;24.90;69.30;;;;;;5077171;28;20202;-88
2021/09/11 11:35:05;;;;;;;6.10;5.60;;;24.90;69.00;;;;;;5079271;28;20183;-88
2021/09/11 11:37:34;;;;;;;6.72;6.07;;;24.50;71.90;;;;;;5078166;28;20207;-90
2021/09/11 11:40:02;;;;;;;4.82;4.43;;;24.20;76.40;;;;;;5075453;28;20191;-90
2021/09/11 11:42:33;;;;;;;4.90;4.53;;;24.00;73.80;;;;;;5074264;28;20254;-90
2021/09/11 11:45:00;;;;;;;4.53;4.13;;;23.90;74.20;;;;;;5071508;28;20191;-90
2021/09/11 11:47:28;;;;;;;4.28;3.88;;;24.00;74.80;;;;;;5071632;28;20258;-90
2021/09/11 11:49:55;;;;;;;3.95;3.65;;;23.80;73.50;;;;;;5076256;28;20303;-91
2021/09/11 11:52:25;;;;;;;3.92;3.65;;;24.00;71.50;;;;;;5054007;28;20219;-90
2021/09/11 11:54:51;;;;;;;4.55;3.78;;;24.10;70.90;;;;;;5079867;28;20188;-91
2021/09/11 11:57:20;;;;;;;3.60;3.38;;;24.20;71.30;;;;;;5055591;28;20212;-89
2021/09/11 12:00:16;;;;;;;4.15;3.75;;;24.30;71.20;;;;;;5077106;28;20188;-88
2021/09/11 12:02:47;;;;;;;4.32;4.00;;;24.10;72.20;;;;;;5071202;28;20179;-88
2021/09/11 12:05:23;;;;;;;4.88;3.95;;;24.00;73.80;;;;;;5073254;28;20181;-88
2021/09/11 12:08:05;;;;;;;3.75;3.42;;;24.20;71.50;;;;;;5073516;28;20208;-88
2021/09/11 12:10:33;;;;;;;3.92;3.63;;;24.10;70.40;;;;;;5056782;28;20188;-88
2021/09/11 12:13:08;;;;;;;4.55;3.92;;;24.00;70.70;;;;;;5071721;28;20203;-88
2021/09/11 12:15:37;;;;;;;4.15;3.75;;;23.70;71.70;;;;;;5079187;28;20184;-88
2021/09/11 12:18:10;;;;;;;5.10;4.70;;;23.60;73.40;;;;;;5071672;28;20196;-87
2021/09/11 12:20:54;;;;;;;4.72;4.40;;;23.50;74.50;;;;;;5074302;28;20203;-88
2021/09/11 12:23:33;;;;;;;4.45;4.15;;;23.50;74.00;;;;;;5059179;28;20231;-88
2021/09/11 12:26:05;;;;;;;5.63;4.32;;;23.50;74.30;;;;;;5064189;28;20204;-88
2021/09/11 12:28:46;;;;;;;4.32;3.92;;;23.20;74.20;;;;;;5071407;28;20260;-88
2021/09/11 12:31:19;;;;;;;4.57;4.25;;;23.40;73.30;;;;;;5074807;28;20201;-88
2021/09/11 12:34:11;;;;;;;4.57;4.18;;;23.40;74.30;;;;;;5063398;28;20184;-87
2021/09/11 12:36:39;;;;;;;4.90;4.60;;;23.50;74.00;;;;;;5087948;28;20231;-88
2021/09/11 12:39:38;;;;;;;5.00;4.60;;;23.40;75.70;;;;;;5084716;28;20184;-88
2021/09/11 12:42:20;;;;;;;4.72;4.25;;;23.50;75.50;;;;;;5059885;28;20235;-88
2021/09/11 12:44:46;;;;;;;5.45;4.95;;;23.50;76.10;;;;;;5085532;28;20210;-88
2021/09/11 12:47:12;;;;;;;5.15;4.78;;;23.60;75.60;;;;;;5059690;28;20226;-89
2021/09/11 12:49:44;;;;;;;5.07;4.65;;;23.40;76.80;;;;;;5081309;28;20728;-89